sensor_id;sensor_type;location;lat;lon;timestamp;temperature;humidity
26691;DHT22;14307;51.718;8.938;2022-12-29T00:00:06;10.00;99.90
26691;DHT22;14307;51.718;8.938;2022-12-29T00:02:40;10.00;99.90
26691;DHT22;14307;51.718;8.938;2022-12-29T00:05:07;10.10;99.90
26691;DHT22;14307;51.718;8.938;2022-12-29T00:07:34;10.00;99.90
26691;DHT22;14307;51.718;8.938;2022-12-29T00:10:01;9.90;99.90
26691;DHT22;14307;51.718;8.938;2022-12-29T00:12:28;9.80;99.90
26691;DHT22;14307;51.718;8.938;2022-12-29T00:15:14;9.80;99.90
26691;DHT22;14307;51.718;8.938;2022-12-29T00:18:00;9.80;99.90
26691;DHT22;14307;51.718;8.938;2022-12-29T00:20:26;9.80;99.90
26691;DHT22;14307;51.718;8.938;2022-12-29T00:23:12;9.90;99.90
26691;DHT22;14307;51.718;8.938;2022-12-29T00:26:02;10.00;99.90
26691;DHT22;14307;51.718;8.938;2022-12-29T00:28:48;10.00;99.90
26691;DHT22;14307;51.718;8.938;2022-12-29T00:31:34;10.10;99.90
26691;DHT22;14307;51.718;8.938;2022-12-29T00:34:20;10.10;99.90
26691;DHT22;14307;51.718;8.938;2022-12-29T00:37:05;10.10;99.90
26691;DHT22;14307;51.718;8.938;2022-12-29T00:39:33;10.20;99.90
26691;DHT22;14307;51.718;8.938;2022-12-29T00:42:18;10.20;99.90
26691;DHT22;14307;51.718;8.938;2022-12-29T00:45:04;10.20;99.90
26691;DHT22;14307;51.718;8.938;2022-12-29T00:47:31;10.20;99.90
26691;DHT22;14307;51.718;8.938;2022-12-29T00:49:57;10.20;99.90
26691;DHT22;14307;51.718;8.938;2022-12-29T00:52:24;10.20;99.90
26691;DHT22;14307;51.718;8.938;2022-12-29T00:54:51;10.30;99.90
26691;DHT22;14307;51.718;8.938;2022-12-29T00:57:18;10.30;99.90
26691;DHT22;14307;51.718;8.938;2022-12-29T00:59:44;10.30;99.90
26691;DHT22;14307;51.718;8.938;2022-12-29T01:02:11;10.30;99.90
26691;DHT22;14307;51.718;8.938;2022-12-29T01:04:38;10.30;99.90
26691;DHT22;14307;51.718;8.938;2022-12-29T01:07:05;10.30;99.90
26691;DHT22;14307;51.718;8.938;2022-12-29T01:09:32;10.30;99.90
26691;DHT22;14307;51.718;8.938;2022-12-29T01:12:18;10.30;99.90
26691;DHT22;14307;51.718;8.938;2022-12-29T01:15:05;10.20;99.90
26691;DHT22;14307;51.718;8.938;2022-12-29T01:17:32;10.20;99.90
26691;DHT22;14307;51.718;8.938;2022-12-29T01:20:00;10.30;99.90
26691;DHT22;14307;51.718;8.938;2022-12-29T01:22:27;10.30;99.90
26691;DHT22;14307;51.718;8.938;2022-12-29T01:24:55;10.30;99.90
26691;DHT22;14307;51.718;8.938;2022-12-29T01:27:21;10.40;99.90
26691;DHT22;14307;51.718;8.938;2022-12-29T01:29:48;10.40;99.90
26691;DHT22;14307;51.718;8.938;2022-12-29T01:32:15;10.40;99.90
26691;DHT22;14307;51.718;8.938;2022-12-29T01:34:43;10.40;99.90
26691;DHT22;14307;51.718;8.938;2022-12-29T01:37:11;10.40;99.90
26691;DHT22;14307;51.718;8.938;2022-12-29T01:39:38;10.40;99.90
26691;DHT22;14307;51.718;8.938;2022-12-29T01:42:05;10.30;99.90
26691;DHT22;14307;51.718;8.938;2022-12-29T01:44:54;9.90;99.90
26691;DHT22;14307;51.718;8.938;2022-12-29T01:47:46;9.50;99.90
26691;DHT22;14307;51.718;8.938;2022-12-29T01:50:25;9.10;99.90
26691;DHT22;14307;51.718;8.938;2022-12-29T01:53:00;8.90;99.90
26691;DHT22;14307;51.718;8.938;2022-12-29T01:55:31;8.80;99.90
26691;DHT22;14307;51.718;8.938;2022-12-29T01:58:02;8.70;99.90
26691;DHT22;14307;51.718;8.938;2022-12-29T02:00:30;8.70;99.90
26691;DHT22;14307;51.718;8.938;2022-12-29T02:02:57;8.70;99.90
26691;DHT22;14307;51.718;8.938;2022-12-29T02:05:28;8.70;99.90
26691;DHT22;14307;51.718;8.938;2022-12-29T02:07:59;8.70;99.90
26691;DHT22;14307;51.718;8.938;2022-12-29T02:10:28;8.70;99.90
26691;DHT22;14307;51.718;8.938;2022-12-29T02:12:56;8.70;99.90
26691;DHT22;14307;51.718;8.938;2022-12-29T02:15:45;8.80;99.90
26691;DHT22;14307;51.718;8.938;2022-12-29T02:32:12;9.40;99.90
26691;DHT22;14307;51.718;8.938;2022-12-29T02:35:01;10.10;99.90
26691;DHT22;14307;51.718;8.938;2022-12-29T02:38:11;10.60;99.90
26691;DHT22;14307;51.718;8.938;2022-12-29T02:40:48;10.80;99.90
26691;DHT22;14307;51.718;8.938;2022-12-29T02:43:37;10.90;99.90
26691;DHT22;14307;51.718;8.938;2022-12-29T02:46:13;10.70;99.90
26691;DHT22;14307;51.718;8.938;2022-12-29T02:51:35;10.60;99.90
26691;DHT22;14307;51.718;8.938;2022-12-29T02:54:04;10.70;99.90
26691;DHT22;14307;51.718;8.938;2022-12-29T02:56:50;10.70;99.90
26691;DHT22;14307;51.718;8.938;2022-12-29T02:59:17;10.80;99.90
26691;DHT22;14307;51.718;8.938;2022-12-29T03:16:34;10.80;99.90
26691;DHT22;14307;51.718;8.938;2022-12-29T03:19:19;10.70;99.90
26691;DHT22;14307;51.718;8.938;2022-12-29T03:22:00;10.80;99.90
26691;DHT22;14307;51.718;8.938;2022-12-29T03:24:56;10.80;99.90
26691;DHT22;14307;51.718;8.938;2022-12-29T03:27:40;10.90;99.90
26691;DHT22;14307;51.718;8.938;2022-12-29T03:30:09;10.90;99.90
26691;DHT22;14307;51.718;8.938;2022-12-29T03:32:42;10.90;99.90
26691;DHT22;14307;51.718;8.938;2022-12-29T03:35:13;11.00;99.90
26691;DHT22;14307;51.718;8.938;2022-12-29T03:37:45;11.00;99.90
26691;DHT22;14307;51.718;8.938;2022-12-29T03:40:16;11.00;99.90
26691;DHT22;14307;51.718;8.938;2022-12-29T03:42:45;11.00;99.90
26691;DHT22;14307;51.718;8.938;2022-12-29T03:45:13;10.90;99.90
26691;DHT22;14307;51.718;8.938;2022-12-29T03:47:40;10.90;99.90
26691;DHT22;14307;51.718;8.938;2022-12-29T03:50:08;10.90;99.90
26691;DHT22;14307;51.718;8.938;2022-12-29T03:52:39;10.90;99.90
26691;DHT22;14307;51.718;8.938;2022-12-29T03:55:06;10.80;99.90
26691;DHT22;14307;51.718;8.938;2022-12-29T03:57:33;10.90;99.90
26691;DHT22;14307;51.718;8.938;2022-12-29T04:00:05;10.90;99.90
26691;DHT22;14307;51.718;8.938;2022-12-29T04:02:40;11.00;99.90
26691;DHT22;14307;51.718;8.938;2022-12-29T04:05:10;11.00;99.90
26691;DHT22;14307;51.718;8.938;2022-12-29T04:07:37;10.90;99.90
26691;DHT22;14307;51.718;8.938;2022-12-29T04:10:04;11.00;99.90
26691;DHT22;14307;51.718;8.938;2022-12-29T04:12:33;11.00;99.90
26691;DHT22;14307;51.718;8.938;2022-12-29T04:15:00;11.00;99.90
26691;DHT22;14307;51.718;8.938;2022-12-29T04:17:27;11.00;99.90
26691;DHT22;14307;51.718;8.938;2022-12-29T04:19:54;10.90;99.90
26691;DHT22;14307;51.718;8.938;2022-12-29T04:22:40;11.00;99.90
26691;DHT22;14307;51.718;8.938;2022-12-29T04:25:07;11.00;99.90
26691;DHT22;14307;51.718;8.938;2022-12-29T04:27:34;11.00;99.90
26691;DHT22;14307;51.718;8.938;2022-12-29T04:30:16;11.10;99.90
26691;DHT22;14307;51.718;8.938;2022-12-29T04:32:58;11.00;99.90
26691;DHT22;14307;51.718;8.938;2022-12-29T04:35:25;11.00;99.90
26691;DHT22;14307;51.718;8.938;2022-12-29T04:37:51;10.90;99.90
26691;DHT22;14307;51.718;8.938;2022-12-29T04:40:18;10.90;99.90
26691;DHT22;14307;51.718;8.938;2022-12-29T04:42:45;10.90;99.90
26691;DHT22;14307;51.718;8.938;2022-12-29T04:45:12;10.90;99.90
26691;DHT22;14307;51.718;8.938;2022-12-29T04:47:51;10.90;99.90
26691;DHT22;14307;51.718;8.938;2022-12-29T04:50:46;10.90;99.90
26691;DHT22;14307;51.718;8.938;2022-12-29T04:53:17;10.90;99.90
26691;DHT22;14307;51.718;8.938;2022-12-29T04:55:50;10.80;99.90
26691;DHT22;14307;51.718;8.938;2022-12-29T04:58:19;10.80;99.90
26691;DHT22;14307;51.718;8.938;2022-12-29T05:00:49;10.70;99.90
26691;DHT22;14307;51.718;8.938;2022-12-29T05:03:17;10.70;99.90
26691;DHT22;14307;51.718;8.938;2022-12-29T05:05:44;10.70;99.90
26691;DHT22;14307;51.718;8.938;2022-12-29T05:08:11;10.80;99.90
26691;DHT22;14307;51.718;8.938;2022-12-29T05:10:38;10.80;99.90
26691;DHT22;14307;51.718;8.938;2022-12-29T05:13:10;10.80;99.90
26691;DHT22;14307;51.718;8.938;2022-12-29T05:15:37;10.80;99.90
26691;DHT22;14307;51.718;8.938;2022-12-29T05:18:04;10.80;99.90
26691;DHT22;14307;51.718;8.938;2022-12-29T05:20:31;10.80;99.90
26691;DHT22;14307;51.718;8.938;2022-12-29T05:22:58;10.80;99.90
26691;DHT22;14307;51.718;8.938;2022-12-29T05:25:24;10.80;99.90
26691;DHT22;14307;51.718;8.938;2022-12-29T05:27:58;10.80;99.90
26691;DHT22;14307;51.718;8.938;2022-12-29T05:30:42;10.80;99.90
26691;DHT22;14307;51.718;8.938;2022-12-29T05:33:09;10.90;99.90
26691;DHT22;14307;51.718;8.938;2022-12-29T05:35:38;10.80;99.90
26691;DHT22;14307;51.718;8.938;2022-12-29T05:38:05;10.80;99.90
26691;DHT22;14307;51.718;8.938;2022-12-29T05:40:33;10.80;99.90
26691;DHT22;14307;51.718;8.938;2022-12-29T05:43:04;10.70;99.90
26691;DHT22;14307;51.718;8.938;2022-12-29T05:45:50;10.70;99.90
26691;DHT22;14307;51.718;8.938;2022-12-29T05:48:36;10.60;99.90
26691;DHT22;14307;51.718;8.938;2022-12-29T05:51:13;10.60;99.90
26691;DHT22;14307;51.718;8.938;2022-12-29T05:53:48;10.60;99.90
26691;DHT22;14307;51.718;8.938;2022-12-29T05:56:16;10.70;99.90
26691;DHT22;14307;51.718;8.938;2022-12-29T05:58:44;10.70;99.90
26691;DHT22;14307;51.718;8.938;2022-12-29T06:01:11;10.50;99.90
26691;DHT22;14307;51.718;8.938;2022-12-29T06:03:38;10.50;99.90
26691;DHT22;14307;51.718;8.938;2022-12-29T06:06:13;10.50;99.90
26691;DHT22;14307;51.718;8.938;2022-12-29T06:08:40;10.60;99.90
26691;DHT22;14307;51.718;8.938;2022-12-29T06:11:08;10.70;99.90
26691;DHT22;14307;51.718;8.938;2022-12-29T06:13:35;10.80;99.90
26691;DHT22;14307;51.718;8.938;2022-12-29T06:16:02;10.90;99.90
26691;DHT22;14307;51.718;8.938;2022-12-29T06:18:29;11.00;99.90
26691;DHT22;14307;51.718;8.938;2022-12-29T06:21:01;11.10;99.90
26691;DHT22;14307;51.718;8.938;2022-12-29T06:23:28;11.10;99.90
26691;DHT22;14307;51.718;8.938;2022-12-29T06:25:55;11.10;99.90
26691;DHT22;14307;51.718;8.938;2022-12-29T06:28:23;11.20;99.90
26691;DHT22;14307;51.718;8.938;2022-12-29T06:30:50;11.20;99.90
26691;DHT22;14307;51.718;8.938;2022-12-29T06:33:17;11.20;99.90
26691;DHT22;14307;51.718;8.938;2022-12-29T06:35:44;11.20;99.90
26691;DHT22;14307;51.718;8.938;2022-12-29T06:38:13;11.30;99.90
26691;DHT22;14307;51.718;8.938;2022-12-29T06:40:42;11.30;99.90
26691;DHT22;14307;51.718;8.938;2022-12-29T06:43:29;11.30;99.90
26691;DHT22;14307;51.718;8.938;2022-12-29T06:46:01;11.40;99.90
26691;DHT22;14307;51.718;8.938;2022-12-29T06:48:28;11.30;99.90
26691;DHT22;14307;51.718;8.938;2022-12-29T06:50:55;11.40;99.90
26691;DHT22;14307;51.718;8.938;2022-12-29T06:53:22;11.30;99.90
26691;DHT22;14307;51.718;8.938;2022-12-29T06:55:49;11.30;99.90
26691;DHT22;14307;51.718;8.938;2022-12-29T06:58:16;11.40;99.90
26691;DHT22;14307;51.718;8.938;2022-12-29T07:00:43;11.30;99.90
26691;DHT22;14307;51.718;8.938;2022-12-29T07:03:10;11.20;99.90
26691;DHT22;14307;51.718;8.938;2022-12-29T07:05:37;11.30;99.90
26691;DHT22;14307;51.718;8.938;2022-12-29T07:08:04;11.30;99.90
26691;DHT22;14307;51.718;8.938;2022-12-29T07:10:31;11.20;99.90
26691;DHT22;14307;51.718;8.938;2022-12-29T07:12:58;11.20;99.90
26691;DHT22;14307;51.718;8.938;2022-12-29T07:15:25;11.30;99.90
26691;DHT22;14307;51.718;8.938;2022-12-29T07:17:51;11.20;99.90
26691;DHT22;14307;51.718;8.938;2022-12-29T07:20:18;11.20;99.90
26691;DHT22;14307;51.718;8.938;2022-12-29T07:22:52;11.20;99.90
26691;DHT22;14307;51.718;8.938;2022-12-29T07:25:19;11.20;99.90
26691;DHT22;14307;51.718;8.938;2022-12-29T07:27:45;11.20;99.90
26691;DHT22;14307;51.718;8.938;2022-12-29T07:30:12;11.10;99.90
26691;DHT22;14307;51.718;8.938;2022-12-29T07:32:39;11.10;99.90
26691;DHT22;14307;51.718;8.938;2022-12-29T07:35:06;11.10;99.90
26691;DHT22;14307;51.718;8.938;2022-12-29T07:37:33;11.10;99.90
26691;DHT22;14307;51.718;8.938;2022-12-29T07:40:02;11.10;99.90
26691;DHT22;14307;51.718;8.938;2022-12-29T07:42:31;11.10;99.90
26691;DHT22;14307;51.718;8.938;2022-12-29T07:44:59;11.00;99.90
26691;DHT22;14307;51.718;8.938;2022-12-29T07:47:32;11.00;99.90
26691;DHT22;14307;51.718;8.938;2022-12-29T07:49:59;11.00;99.90
26691;DHT22;14307;51.718;8.938;2022-12-29T07:52:26;11.00;99.90
26691;DHT22;14307;51.718;8.938;2022-12-29T07:54:53;11.00;99.90
26691;DHT22;14307;51.718;8.938;2022-12-29T07:57:19;11.00;99.90
26691;DHT22;14307;51.718;8.938;2022-12-29T07:59:52;11.00;99.90
26691;DHT22;14307;51.718;8.938;2022-12-29T08:02:18;10.90;99.90
26691;DHT22;14307;51.718;8.938;2022-12-29T08:04:45;10.80;99.90
26691;DHT22;14307;51.718;8.938;2022-12-29T08:07:12;10.70;99.90
26691;DHT22;14307;51.718;8.938;2022-12-29T08:09:38;10.70;99.90
26691;DHT22;14307;51.718;8.938;2022-12-29T08:12:05;10.60;99.90
26691;DHT22;14307;51.718;8.938;2022-12-29T08:14:32;10.50;99.90
26691;DHT22;14307;51.718;8.938;2022-12-29T08:16:59;10.40;99.90
26691;DHT22;14307;51.718;8.938;2022-12-29T08:19:25;10.40;99.90
26691;DHT22;14307;51.718;8.938;2022-12-29T08:21:53;10.30;99.90
26691;DHT22;14307;51.718;8.938;2022-12-29T08:24:19;10.30;99.90
26691;DHT22;14307;51.718;8.938;2022-12-29T08:26:46;10.30;99.90
26691;DHT22;14307;51.718;8.938;2022-12-29T08:29:13;10.20;99.90
26691;DHT22;14307;51.718;8.938;2022-12-29T08:31:40;10.10;99.90
26691;DHT22;14307;51.718;8.938;2022-12-29T08:34:06;10.00;99.90
26691;DHT22;14307;51.718;8.938;2022-12-29T08:36:33;10.00;99.90
26691;DHT22;14307;51.718;8.938;2022-12-29T08:39:00;10.00;99.90
26691;DHT22;14307;51.718;8.938;2022-12-29T08:41:26;10.10;99.90
26691;DHT22;14307;51.718;8.938;2022-12-29T08:43:53;10.10;99.90
26691;DHT22;14307;51.718;8.938;2022-12-29T08:46:20;10.00;99.90
26691;DHT22;14307;51.718;8.938;2022-12-29T08:48:46;10.00;99.90
26691;DHT22;14307;51.718;8.938;2022-12-29T08:51:13;10.00;99.90
26691;DHT22;14307;51.718;8.938;2022-12-29T08:53:42;9.90;99.90
26691;DHT22;14307;51.718;8.938;2022-12-29T08:56:09;9.80;99.90
26691;DHT22;14307;51.718;8.938;2022-12-29T08:58:44;9.70;99.90
26691;DHT22;14307;51.718;8.938;2022-12-29T09:01:11;9.70;99.90
26691;DHT22;14307;51.718;8.938;2022-12-29T09:03:37;9.60;99.90
26691;DHT22;14307;51.718;8.938;2022-12-29T09:06:24;9.60;99.90
26691;DHT22;14307;51.718;8.938;2022-12-29T09:08:53;9.50;99.90
26691;DHT22;14307;51.718;8.938;2022-12-29T09:11:22;9.60;99.90
26691;DHT22;14307;51.718;8.938;2022-12-29T09:13:50;9.60;99.90
26691;DHT22;14307;51.718;8.938;2022-12-29T09:16:17;9.60;99.90
26691;DHT22;14307;51.718;8.938;2022-12-29T09:18:44;9.60;99.90
26691;DHT22;14307;51.718;8.938;2022-12-29T09:21:12;9.60;99.90
26691;DHT22;14307;51.718;8.938;2022-12-29T09:23:39;9.50;99.90
26691;DHT22;14307;51.718;8.938;2022-12-29T09:26:07;9.60;99.90
26691;DHT22;14307;51.718;8.938;2022-12-29T09:28:34;9.60;99.90
26691;DHT22;14307;51.718;8.938;2022-12-29T09:31:02;9.70;99.90
26691;DHT22;14307;51.718;8.938;2022-12-29T09:33:28;9.70;99.90
26691;DHT22;14307;51.718;8.938;2022-12-29T09:35:57;9.70;99.90
26691;DHT22;14307;51.718;8.938;2022-12-29T09:38:26;9.90;99.90
26691;DHT22;14307;51.718;8.938;2022-12-29T09:44:07;9.90;99.90
26691;DHT22;14307;51.718;8.938;2022-12-29T09:46:39;9.90;99.90
26691;DHT22;14307;51.718;8.938;2022-12-29T09:51:43;9.90;99.90
26691;DHT22;14307;51.718;8.938;2022-12-29T09:54:29;10.00;99.90
26691;DHT22;14307;51.718;8.938;2022-12-29T09:56:59;10.00;99.90
26691;DHT22;14307;51.718;8.938;2022-12-29T09:59:42;10.00;99.90
26691;DHT22;14307;51.718;8.938;2022-12-29T10:04:58;10.10;99.90
26691;DHT22;14307;51.718;8.938;2022-12-29T10:07:34;10.10;99.90
26691;DHT22;14307;51.718;8.938;2022-12-29T10:11:03;10.20;99.90
26691;DHT22;14307;51.718;8.938;2022-12-29T10:13:23;10.30;99.90
26691;DHT22;14307;51.718;8.938;2022-12-29T10:16:09;10.30;99.90
26691;DHT22;14307;51.718;8.938;2022-12-29T10:24:16;10.20;99.90
26691;DHT22;14307;51.718;8.938;2022-12-29T10:26:43;10.10;99.90
26691;DHT22;14307;51.718;8.938;2022-12-29T10:32:26;10.10;99.90
26691;DHT22;14307;51.718;8.938;2022-12-29T10:34:57;10.10;99.90
26691;DHT22;14307;51.718;8.938;2022-12-29T10:40:33;10.00;99.90
26691;DHT22;14307;51.718;8.938;2022-12-29T10:43:12;10.00;99.90
26691;DHT22;14307;51.718;8.938;2022-12-29T10:45:47;10.00;99.90
26691;DHT22;14307;51.718;8.938;2022-12-29T10:48:23;10.00;99.90
26691;DHT22;14307;51.718;8.938;2022-12-29T10:50:59;9.90;99.90
26691;DHT22;14307;51.718;8.938;2022-12-29T10:53:43;9.70;99.90
26691;DHT22;14307;51.718;8.938;2022-12-29T10:56:35;9.40;99.90
26691;DHT22;14307;51.718;8.938;2022-12-29T10:59:20;9.00;99.90
26691;DHT22;14307;51.718;8.938;2022-12-29T11:05:00;8.90;99.90
26691;DHT22;14307;51.718;8.938;2022-12-29T11:07:31;9.00;99.90
26691;DHT22;14307;51.718;8.938;2022-12-29T11:10:28;9.20;99.90
26691;DHT22;14307;51.718;8.938;2022-12-29T11:15:40;9.40;99.90
26691;DHT22;14307;51.718;8.938;2022-12-29T11:18:19;9.30;99.90
26691;DHT22;14307;51.718;8.938;2022-12-29T11:20:48;9.30;99.90
26691;DHT22;14307;51.718;8.938;2022-12-29T11:23:31;9.40;99.90
26691;DHT22;14307;51.718;8.938;2022-12-29T11:26:20;9.60;99.90
26691;DHT22;14307;51.718;8.938;2022-12-29T11:31:30;9.90;99.90
26691;DHT22;14307;51.718;8.938;2022-12-29T11:33:57;10.00;99.90
26691;DHT22;14307;51.718;8.938;2022-12-29T11:36:24;10.10;99.90
26691;DHT22;14307;51.718;8.938;2022-12-29T11:38:53;10.20;99.90
26691;DHT22;14307;51.718;8.938;2022-12-29T11:41:28;10.10;99.90
26691;DHT22;14307;51.718;8.938;2022-12-29T11:44:01;10.20;99.90
26691;DHT22;14307;51.718;8.938;2022-12-29T11:46:36;10.10;99.90
26691;DHT22;14307;51.718;8.938;2022-12-29T11:49:04;10.10;99.90
26691;DHT22;14307;51.718;8.938;2022-12-29T11:51:58;10.30;99.90
26691;DHT22;14307;51.718;8.938;2022-12-29T11:54:26;10.20;99.90
26691;DHT22;14307;51.718;8.938;2022-12-29T11:56:54;10.30;99.90
26691;DHT22;14307;51.718;8.938;2022-12-29T12:01:57;10.20;99.90
26691;DHT22;14307;51.718;8.938;2022-12-29T12:04:30;10.10;99.90
26691;DHT22;14307;51.718;8.938;2022-12-29T12:07:22;10.20;99.90
26691;DHT22;14307;51.718;8.938;2022-12-29T12:09:54;10.10;99.90
26691;DHT22;14307;51.718;8.938;2022-12-29T12:12:48;10.10;99.90
26691;DHT22;14307;51.718;8.938;2022-12-29T12:15:19;10.10;99.90
26691;DHT22;14307;51.718;8.938;2022-12-29T12:18:08;10.10;99.90
26691;DHT22;14307;51.718;8.938;2022-12-29T12:21:46;10.10;99.90
26691;DHT22;14307;51.718;8.938;2022-12-29T12:24:20;10.00;99.90
26691;DHT22;14307;51.718;8.938;2022-12-29T12:27:09;10.00;99.90
26691;DHT22;14307;51.718;8.938;2022-12-29T12:29:54;10.00;99.90
26691;DHT22;14307;51.718;8.938;2022-12-29T12:32:51;10.00;99.90
26691;DHT22;14307;51.718;8.938;2022-12-29T12:35:42;10.10;99.90
26691;DHT22;14307;51.718;8.938;2022-12-29T12:41:13;10.10;99.90
26691;DHT22;14307;51.718;8.938;2022-12-29T12:43:54;10.10;99.90
26691;DHT22;14307;51.718;8.938;2022-12-29T12:46:46;10.10;99.90
26691;DHT22;14307;51.718;8.938;2022-12-29T12:49:48;10.00;99.90
26691;DHT22;14307;51.718;8.938;2022-12-29T12:52:40;10.00;99.90
26691;DHT22;14307;51.718;8.938;2022-12-29T12:55:43;10.00;99.90
26691;DHT22;14307;51.718;8.938;2022-12-29T13:01:22;10.00;99.90
26691;DHT22;14307;51.718;8.938;2022-12-29T13:07:22;9.90;99.90
26691;DHT22;14307;51.718;8.938;2022-12-29T13:15:51;10.00;99.90
26691;DHT22;14307;51.718;8.938;2022-12-29T13:18:48;9.90;99.90
26691;DHT22;14307;51.718;8.938;2022-12-29T13:21:34;9.90;99.90
26691;DHT22;14307;51.718;8.938;2022-12-29T13:26:50;10.00;99.90
26691;DHT22;14307;51.718;8.938;2022-12-29T13:29:53;10.00;99.90
26691;DHT22;14307;51.718;8.938;2022-12-29T13:37:58;9.90;99.90
26691;DHT22;14307;51.718;8.938;2022-12-29T13:40:30;9.90;99.90
26691;DHT22;14307;51.718;8.938;2022-12-29T13:43:01;9.90;99.90
26691;DHT22;14307;51.718;8.938;2022-12-29T13:45:31;9.80;99.90
26691;DHT22;14307;51.718;8.938;2022-12-29T13:48:21;9.90;99.90
26691;DHT22;14307;51.718;8.938;2022-12-29T13:50:56;9.90;99.90
26691;DHT22;14307;51.718;8.938;2022-12-29T13:53:47;9.80;99.90
26691;DHT22;14307;51.718;8.938;2022-12-29T13:56:40;9.70;99.90
26691;DHT22;14307;51.718;8.938;2022-12-29T14:02:00;9.40;99.90
26691;DHT22;14307;51.718;8.938;2022-12-29T14:04:31;9.40;99.90
26691;DHT22;14307;51.718;8.938;2022-12-29T14:07:03;9.40;99.90
26691;DHT22;14307;51.718;8.938;2022-12-29T14:14:52;9.40;99.90
26691;DHT22;14307;51.718;8.938;2022-12-29T14:17:20;9.40;99.90
26691;DHT22;14307;51.718;8.938;2022-12-29T14:19:51;9.40;99.90
26691;DHT22;14307;51.718;8.938;2022-12-29T14:22:27;9.50;99.90
26691;DHT22;14307;51.718;8.938;2022-12-29T14:24:59;9.40;99.90
26691;DHT22;14307;51.718;8.938;2022-12-29T14:29:56;9.00;99.90
26691;DHT22;14307;51.718;8.938;2022-12-29T14:34:54;8.70;99.90
26691;DHT22;14307;51.718;8.938;2022-12-29T14:37:30;8.70;99.90
26691;DHT22;14307;51.718;8.938;2022-12-29T14:42:30;8.80;99.90
26691;DHT22;14307;51.718;8.938;2022-12-29T14:45:08;8.80;99.90
26691;DHT22;14307;51.718;8.938;2022-12-29T14:47:52;8.80;99.90
26691;DHT22;14307;51.718;8.938;2022-12-29T14:50:25;8.80;99.90
26691;DHT22;14307;51.718;8.938;2022-12-29T14:52:57;8.90;99.90
26691;DHT22;14307;51.718;8.938;2022-12-29T14:55:45;8.90;99.90
26691;DHT22;14307;51.718;8.938;2022-12-29T14:58:30;8.90;99.90
26691;DHT22;14307;51.718;8.938;2022-12-29T15:00:59;8.90;99.90
26691;DHT22;14307;51.718;8.938;2022-12-29T15:03:32;8.90;99.90
26691;DHT22;14307;51.718;8.938;2022-12-29T15:06:04;8.90;99.90
26691;DHT22;14307;51.718;8.938;2022-12-29T15:11:42;8.90;99.90
26691;DHT22;14307;51.718;8.938;2022-12-29T15:16:57;9.00;99.90
26691;DHT22;14307;51.718;8.938;2022-12-29T15:19:26;9.00;99.90
26691;DHT22;14307;51.718;8.938;2022-12-29T15:21:54;9.00;99.90
26691;DHT22;14307;51.718;8.938;2022-12-29T15:24:21;9.00;99.90
26691;DHT22;14307;51.718;8.938;2022-12-29T15:26:53;9.00;99.90
26691;DHT22;14307;51.718;8.938;2022-12-29T15:29:44;9.00;99.90
26691;DHT22;14307;51.718;8.938;2022-12-29T15:32:25;9.00;99.90
26691;DHT22;14307;51.718;8.938;2022-12-29T15:34:55;9.10;99.90
26691;DHT22;14307;51.718;8.938;2022-12-29T15:37:24;9.10;99.90
26691;DHT22;14307;51.718;8.938;2022-12-29T15:39:53;9.10;99.90
26691;DHT22;14307;51.718;8.938;2022-12-29T15:45:06;9.10;99.90
26691;DHT22;14307;51.718;8.938;2022-12-29T15:47:37;9.10;99.90
26691;DHT22;14307;51.718;8.938;2022-12-29T15:50:26;9.10;99.90
26691;DHT22;14307;51.718;8.938;2022-12-29T15:52:57;9.10;99.90
26691;DHT22;14307;51.718;8.938;2022-12-29T15:55:35;9.20;99.90
26691;DHT22;14307;51.718;8.938;2022-12-29T15:58:05;9.20;99.90
26691;DHT22;14307;51.718;8.938;2022-12-29T16:00:34;9.20;99.90
26691;DHT22;14307;51.718;8.938;2022-12-29T16:03:05;9.20;99.90
26691;DHT22;14307;51.718;8.938;2022-12-29T16:05:38;9.20;99.90
26691;DHT22;14307;51.718;8.938;2022-12-29T16:08:28;9.10;99.90
26691;DHT22;14307;51.718;8.938;2022-12-29T16:10:57;9.10;99.90
26691;DHT22;14307;51.718;8.938;2022-12-29T16:13:29;9.10;99.90
26691;DHT22;14307;51.718;8.938;2022-12-29T16:16:18;9.20;99.90
26691;DHT22;14307;51.718;8.938;2022-12-29T16:18:46;9.30;99.90
26691;DHT22;14307;51.718;8.938;2022-12-29T16:21:33;9.30;99.90
26691;DHT22;14307;51.718;8.938;2022-12-29T16:24:02;9.20;99.90
26691;DHT22;14307;51.718;8.938;2022-12-29T16:26:31;9.30;99.90
26691;DHT22;14307;51.718;8.938;2022-12-29T16:29:01;9.20;99.90
26691;DHT22;14307;51.718;8.938;2022-12-29T16:31:36;9.20;99.90
26691;DHT22;14307;51.718;8.938;2022-12-29T16:34:35;9.20;99.90
26691;DHT22;14307;51.718;8.938;2022-12-29T16:39:50;9.10;99.90
26691;DHT22;14307;51.718;8.938;2022-12-29T16:47:54;9.10;99.90
26691;DHT22;14307;51.718;8.938;2022-12-29T16:50:38;9.10;99.90
26691;DHT22;14307;51.718;8.938;2022-12-29T16:53:06;9.10;99.90
26691;DHT22;14307;51.718;8.938;2022-12-29T16:55:46;9.10;99.90
26691;DHT22;14307;51.718;8.938;2022-12-29T16:58:20;9.10;99.90
26691;DHT22;14307;51.718;8.938;2022-12-29T17:00:48;9.10;99.90
26691;DHT22;14307;51.718;8.938;2022-12-29T17:03:15;9.10;99.90
26691;DHT22;14307;51.718;8.938;2022-12-29T17:05:42;9.20;99.90
26691;DHT22;14307;51.718;8.938;2022-12-29T17:08:17;9.20;99.90
26691;DHT22;14307;51.718;8.938;2022-12-29T17:10:51;9.10;99.90
26691;DHT22;14307;51.718;8.938;2022-12-29T17:13:38;9.10;99.90
26691;DHT22;14307;51.718;8.938;2022-12-29T17:16:06;9.10;99.90
26691;DHT22;14307;51.718;8.938;2022-12-29T17:18:34;9.10;99.90
26691;DHT22;14307;51.718;8.938;2022-12-29T17:21:01;9.10;99.90
26691;DHT22;14307;51.718;8.938;2022-12-29T17:23:29;9.00;99.90
26691;DHT22;14307;51.718;8.938;2022-12-29T17:25:57;9.00;99.90
26691;DHT22;14307;51.718;8.938;2022-12-29T17:28:27;9.00;99.90
26691;DHT22;14307;51.718;8.938;2022-12-29T17:30:58;9.00;99.90
26691;DHT22;14307;51.718;8.938;2022-12-29T17:33:27;9.00;99.90
26691;DHT22;14307;51.718;8.938;2022-12-29T17:35:56;9.00;99.90
26691;DHT22;14307;51.718;8.938;2022-12-29T17:38:30;9.00;99.90
26691;DHT22;14307;51.718;8.938;2022-12-29T17:40:58;9.00;99.90
26691;DHT22;14307;51.718;8.938;2022-12-29T17:43:25;9.00;99.90
26691;DHT22;14307;51.718;8.938;2022-12-29T17:46:01;8.90;99.90
26691;DHT22;14307;51.718;8.938;2022-12-29T17:48:28;8.90;99.90
26691;DHT22;14307;51.718;8.938;2022-12-29T17:50:56;8.90;99.90
26691;DHT22;14307;51.718;8.938;2022-12-29T17:53:26;8.90;99.90
26691;DHT22;14307;51.718;8.938;2022-12-29T17:55:53;8.90;99.90
26691;DHT22;14307;51.718;8.938;2022-12-29T18:00:48;8.70;99.90
26691;DHT22;14307;51.718;8.938;2022-12-29T18:03:18;8.80;99.90
26691;DHT22;14307;51.718;8.938;2022-12-29T18:05:46;8.70;99.90
26691;DHT22;14307;51.718;8.938;2022-12-29T18:08:15;8.70;99.90
26691;DHT22;14307;51.718;8.938;2022-12-29T18:10:42;8.60;99.90
26691;DHT22;14307;51.718;8.938;2022-12-29T18:13:23;8.60;99.90
26691;DHT22;14307;51.718;8.938;2022-12-29T18:15:52;8.70;99.90